Time;durP1;ratioP1;P1;durP2;ratioP2;P2;SDS_P1;SDS_P2;PMS_P1;PMS_P2;Temp;Humidity;BMP_temperature;BMP_pressure;BME280_temperature;BME280_humidity;BME280_pressure;Samples;Min_cycle;Max_cycle;Signal;HPM_P1;HPM_P2
2023/12/28 00:00:30;;;;;;;6.32;3.83;;;8.50;99.90;;;;;;5042579;28;20052;-79
2023/12/28 00:02:56;;;;;;;4.22;2.92;;;8.50;99.90;;;;;;5049217;28;20063;-79
2023/12/28 00:05:21;;;;;;;4.55;2.65;;;8.50;99.90;;;;;;5041037;28;20061;-79
2023/12/28 00:07:47;;;;;;;3.40;2.15;;;8.50;99.90;;;;;;5044354;28;20551;-79
2023/12/28 00:10:13;;;;;;;4.10;3.10;;;8.50;99.90;;;;;;5045403;28;20044;-79
2023/12/28 00:12:38;;;;;;;5.68;3.58;;;8.50;99.90;;;;;;5042074;28;20108;-79
2023/12/28 00:15:04;;;;;;;5.78;3.33;;;8.50;99.90;;;;;;5048273;28;20503;-79
2023/12/28 00:17:30;;;;;;;5.32;3.47;;;8.60;99.90;;;;;;5045829;28;20052;-79
2023/12/28 00:19:56;;;;;;;5.30;3.53;;;8.70;99.90;;;;;;5042626;28;20064;-79
2023/12/28 00:22:21;;;;;;;5.13;3.33;;;8.70;99.90;;;;;;5052915;28;20128;-79
2023/12/28 00:24:47;;;;;;;4.65;3.70;;;8.70;99.90;;;;;;5047791;28;20064;-79
2023/12/28 00:27:12;;;;;;;4.47;3.80;;;8.80;99.90;;;;;;5046158;28;20041;-79
2023/12/28 00:29:38;;;;;;;6.22;3.80;;;8.70;99.90;;;;;;5045027;28;20771;-79
2023/12/28 00:32:07;;;;;;;5.13;2.63;;;8.70;99.90;;;;;;5044452;28;20048;-79
2023/12/28 00:34:33;;;;;;;6.25;4.10;;;8.80;99.90;;;;;;5046759;28;20101;-79
2023/12/28 00:36:59;;;;;;;7.47;3.88;;;8.70;99.90;;;;;;5044735;28;20493;-79
2023/12/28 00:39:24;;;;;;;5.75;3.60;;;8.80;99.90;;;;;;5045574;28;20044;-79
2023/12/28 00:41:50;;;;;;;5.22;3.90;;;8.80;99.90;;;;;;5044349;28;20040;-79
2023/12/28 00:44:15;;;;;;;6.97;3.97;;;8.90;99.90;;;;;;5044616;28;20112;-79
2023/12/28 00:46:41;;;;;;;5.95;3.63;;;8.90;99.90;;;;;;5049636;28;20041;-79
2023/12/28 00:49:08;;;;;;;5.50;3.80;;;9.00;99.90;;;;;;5042234;28;20685;-79
2023/12/28 00:51:33;;;;;;;5.40;3.88;;;9.00;99.90;;;;;;5046055;28;20076;-79
2023/12/28 00:53:59;;;;;;;6.32;4.05;;;9.00;99.90;;;;;;5036147;28;20400;-79
2023/12/28 00:56:25;;;;;;;7.13;3.83;;;9.10;99.90;;;;;;5046338;28;20037;-79
2023/12/28 00:58:50;;;;;;;7.47;4.50;;;9.10;99.90;;;;;;5045864;28;20149;-79
2023/12/28 01:01:17;;;;;;;5.10;3.88;;;9.10;99.90;;;;;;5047550;28;20040;-79
2023/12/28 01:03:42;;;;;;;7.78;4.10;;;9.10;99.90;;;;;;5041995;28;20079;-79
2023/12/28 01:06:08;;;;;;;4.97;4.00;;;9.10;99.90;;;;;;5041298;28;20563;-80
2023/12/28 01:08:33;;;;;;;4.97;2.92;;;9.10;99.90;;;;;;5045039;28;20081;-80
2023/12/28 01:11:00;;;;;;;7.97;3.78;;;9.10;99.90;;;;;;5050577;28;20071;-79
2023/12/28 01:13:27;;;;;;;6.90;3.80;;;9.00;99.90;;;;;;5036014;28;20045;-79
2023/12/28 01:15:52;;;;;;;6.82;3.92;;;9.10;99.90;;;;;;5042971;28;20048;-79
2023/12/28 01:18:19;;;;;;;6.10;3.80;;;9.10;99.90;;;;;;5046472;28;20064;-79
2023/12/28 01:20:44;;;;;;;5.70;3.60;;;9.10;99.90;;;;;;5044782;28;20044;-79
2023/12/28 01:23:10;;;;;;;5.05;3.42;;;9.10;99.90;;;;;;5041641;28;20041;-79
2023/12/28 01:25:35;;;;;;;6.32;3.90;;;9.00;99.90;;;;;;5041074;28;20140;-79
2023/12/28 01:28:01;;;;;;;5.70;3.80;;;9.10;99.90;;;;;;5045312;28;20480;-79
2023/12/28 01:30:27;;;;;;;5.93;3.65;;;9.10;99.90;;;;;;5041530;28;20053;-79
2023/12/28 01:32:53;;;;;;;7.00;3.83;;;9.10;99.90;;;;;;5047230;28;20128;-79
2023/12/28 01:35:18;;;;;;;6.00;3.85;;;9.10;99.90;;;;;;5042108;28;20040;-79
2023/12/28 01:37:44;;;;;;;5.85;3.60;;;9.10;99.90;;;;;;5045819;28;20048;-79
2023/12/28 01:40:10;;;;;;;6.53;3.92;;;9.10;99.90;;;;;;5041931;28;20045;-79
2023/12/28 01:42:35;;;;;;;7.70;3.80;;;9.00;99.90;;;;;;5039252;28;20037;-79
2023/12/28 01:45:01;;;;;;;5.18;3.72;;;9.00;99.90;;;;;;5044809;28;20585;-79
2023/12/28 01:47:28;;;;;;;6.55;3.85;;;9.00;99.90;;;;;;5041062;28;20042;-79
2023/12/28 01:49:55;;;;;;;6.05;3.85;;;9.10;99.90;;;;;;5041714;28;20053;-79
2023/12/28 01:52:21;;;;;;;7.53;3.72;;;8.90;99.90;;;;;;5043151;28;20604;-79
2023/12/28 01:54:47;;;;;;;5.07;3.92;;;9.00;99.90;;;;;;5053335;28;20131;-79
2023/12/28 01:57:14;;;;;;;5.93;3.60;;;9.00;99.90;;;;;;5042596;28;20148;-79
2023/12/28 01:59:40;;;;;;;6.90;3.72;;;9.00;99.90;;;;;;5038895;28;20056;-79
2023/12/28 02:02:07;;;;;;;6.83;3.60;;;9.00;99.90;;;;;;5046685;28;20119;-79
2023/12/28 02:04:33;;;;;;;6.70;4.03;;;9.00;99.90;;;;;;5044227;28;20049;-79
2023/12/28 02:07:00;;;;;;;6.95;3.78;;;9.00;99.90;;;;;;5050855;28;20088;-79
2023/12/28 02:09:26;;;;;;;6.53;3.75;;;9.00;99.90;;;;;;5047199;28;20040;-79
2023/12/28 02:11:52;;;;;;;5.90;4.00;;;9.00;99.90;;;;;;5044975;28;20484;-79
2023/12/28 02:14:19;;;;;;;6.80;3.88;;;9.00;99.90;;;;;;5048628;28;20070;-79
2023/12/28 02:16:55;;;;;;;4.97;2.50;;;9.00;99.90;;;;;;5047150;28;20047;-79
2023/12/28 02:19:40;;;;;;;5.30;3.75;;;8.90;99.90;;;;;;5050682;28;20040;-79
2023/12/28 02:22:07;;;;;;;6.85;3.92;;;8.90;99.90;;;;;;5049616;28;20044;-79
2023/12/28 02:25:06;;;;;;;6.53;4.03;;;8.90;99.90;;;;;;5048426;28;20048;-79
2023/12/28 02:27:42;;;;;;;5.60;3.88;;;9.00;99.90;;;;;;5047160;28;20128;-79
2023/12/28 02:30:09;;;;;;;6.78;4.38;;;8.90;99.90;;;;;;5045870;28;20052;-79
2023/12/28 02:32:48;;;;;;;6.05;3.70;;;8.90;99.90;;;;;;5045667;28;20244;-79
2023/12/28 02:35:39;;;;;;;6.10;3.80;;;9.00;99.90;;;;;;5044540;28;20101;-79
2023/12/28 02:38:17;;;;;;;8.52;4.10;;;9.00;99.90;;;;;;5047101;28;20061;-79
2023/12/28 02:40:44;;;;;;;5.55;4.10;;;9.00;99.90;;;;;;5050919;28;20068;-79
2023/12/28 02:43:10;;;;;;;6.63;4.10;;;9.00;99.90;;;;;;5053820;28;20754;-79
2023/12/28 02:45:37;;;;;;;5.63;3.97;;;9.00;99.90;;;;;;5048825;28;20095;-78
2023/12/28 02:48:04;;;;;;;4.32;2.65;;;9.00;99.90;;;;;;5061831;28;20534;-79
2023/12/28 02:50:30;;;;;;;6.25;4.18;;;9.00;99.90;;;;;;5047188;28;20045;-79
2023/12/28 02:52:56;;;;;;;7.30;3.88;;;9.00;99.90;;;;;;5049107;28;20415;-79
2023/12/28 02:55:22;;;;;;;8.20;4.77;;;9.10;99.90;;;;;;5049601;28;20045;-79
2023/12/28 02:57:50;;;;;;;4.80;2.67;;;9.00;99.90;;;;;;5046011;28;20295;-79
2023/12/28 03:00:16;;;;;;;7.80;3.30;;;9.10;99.90;;;;;;5049171;28;20063;-79
2023/12/28 03:02:41;;;;;;;4.95;2.50;;;9.00;99.90;;;;;;5045052;28;20374;-79
2023/12/28 03:05:07;;;;;;;5.85;3.20;;;9.00;99.90;;;;;;5051473;28;20079;-79
2023/12/28 03:07:34;;;;;;;6.28;3.10;;;9.00;99.90;;;;;;5046477;28;20110;-79
2023/12/28 03:10:00;;;;;;;5.00;3.93;;;9.00;99.90;;;;;;5051144;28;20127;-79
2023/12/28 03:12:26;;;;;;;6.80;4.40;;;9.10;99.90;;;;;;5045483;28;20072;-79
2023/12/28 03:14:52;;;;;;;7.90;4.20;;;9.10;99.90;;;;;;5067490;28;20037;-79
2023/12/28 03:17:18;;;;;;;8.13;2.63;;;9.10;99.90;;;;;;5047072;28;20071;-79
2023/12/28 03:19:43;;;;;;;6.57;4.05;;;9.20;99.90;;;;;;5050130;28;20037;-79
2023/12/28 03:22:09;;;;;;;8.02;4.40;;;9.10;99.90;;;;;;5047355;28;20045;-79
2023/12/28 03:24:37;;;;;;;5.65;3.65;;;9.20;99.90;;;;;;5049090;28;20519;-79
2023/12/28 03:27:03;;;;;;;6.35;4.28;;;9.30;99.90;;;;;;5048474;28;20059;-79
2023/12/28 03:29:29;;;;;;;5.78;3.72;;;9.30;99.90;;;;;;5046510;28;20120;-79
2023/12/28 03:31:54;;;;;;;9.35;4.05;;;9.30;99.90;;;;;;5048633;28;20127;-79
2023/12/28 03:34:21;;;;;;;9.02;4.25;;;9.30;99.90;;;;;;5046700;28;20032;-79
2023/12/28 03:36:47;;;;;;;8.57;4.30;;;9.40;99.90;;;;;;5046068;28;20045;-79
2023/12/28 03:39:13;;;;;;;8.13;4.18;;;9.50;99.90;;;;;;5048616;28;20142;-79
2023/12/28 03:41:38;;;;;;;9.02;4.47;;;9.40;99.90;;;;;;5044050;28;20048;-79
2023/12/28 03:44:04;;;;;;;7.38;4.10;;;9.40;99.90;;;;;;5047182;28;20055;-79
2023/12/28 03:46:29;;;;;;;8.43;4.10;;;9.40;99.90;;;;;;5047687;28;20033;-79
2023/12/28 03:48:55;;;;;;;5.95;3.90;;;9.50;99.90;;;;;;5046138;28;20695;-79
2023/12/28 03:51:21;;;;;;;8.35;4.07;;;9.50;99.90;;;;;;5047406;28;20041;-79
2023/12/28 03:53:46;;;;;;;8.77;4.55;;;9.50;99.90;;;;;;5047316;28;20068;-79
2023/12/28 03:56:23;;;;;;;7.57;3.67;;;9.60;99.90;;;;;;5048972;28;20033;-79
2023/12/28 03:58:49;;;;;;;7.13;3.97;;;9.60;99.90;;;;;;5043824;28;20115;-79
2023/12/28 04:01:19;;;;;;;7.68;3.88;;;9.50;99.90;;;;;;5045788;28;20068;-79
2023/12/28 04:03:45;;;;;;;9.32;3.95;;;9.60;99.90;;;;;;5044244;28;20049;-79
2023/12/28 04:06:12;;;;;;;6.90;3.80;;;9.60;99.90;;;;;;5048076;28;20396;-79
2023/12/28 04:08:42;;;;;;;8.07;3.75;;;9.60;99.90;;;;;;5045178;28;20052;-78
2023/12/28 04:11:08;;;;;;;7.75;3.78;;;9.60;99.90;;;;;;5037350;28;20423;-79
2023/12/28 04:13:33;;;;;;;7.57;3.65;;;9.60;99.90;;;;;;5044751;28;20060;-79
2023/12/28 04:15:59;;;;;;;6.53;3.60;;;9.70;99.90;;;;;;5039485;28;20480;-79
2023/12/28 04:18:24;;;;;;;8.35;2.53;;;9.70;99.90;;;;;;5048854;28;20429;-78
2023/12/28 04:20:50;;;;;;;9.88;3.90;;;9.70;99.90;;;;;;5048042;28;20045;-79
2023/12/28 04:23:16;;;;;;;7.82;3.15;;;9.70;99.90;;;;;;5047637;28;21735;-79
2023/12/28 04:25:41;;;;;;;6.50;3.47;;;9.70;99.90;;;;;;5047624;28;20072;-79
2023/12/28 04:28:07;;;;;;;10.07;3.78;;;9.70;99.90;;;;;;5046946;28;20067;-79
2023/12/28 04:30:33;;;;;;;13.90;3.90;;;9.80;99.90;;;;;;5043385;28;20037;-79
2023/12/28 04:33:00;;;;;;;3.67;1.90;;;9.80;99.90;;;;;;5045605;28;20052;-79
2023/12/28 04:35:26;;;;;;;8.30;3.85;;;9.70;99.90;;;;;;5047718;28;20053;-79
2023/12/28 04:37:51;;;;;;;8.25;3.20;;;9.70;99.90;;;;;;5045716;28;20393;-79
2023/12/28 04:40:17;;;;;;;8.63;3.40;;;9.80;99.90;;;;;;5037532;28;20381;-79
2023/12/28 04:42:43;;;;;;;9.77;3.60;;;9.90;99.90;;;;;;5047216;28;20466;-79
2023/12/28 04:45:12;;;;;;;9.05;3.28;;;9.90;99.90;;;;;;5046924;28;20040;-79
2023/12/28 04:47:38;;;;;;;8.77;3.45;;;9.90;99.90;;;;;;5043301;28;20083;-79
2023/12/28 04:50:04;;;;;;;8.35;3.20;;;9.90;99.90;;;;;;5064218;28;20597;-79
2023/12/28 04:52:30;;;;;;;7.53;3.50;;;9.90;99.90;;;;;;5040277;28;20040;-79
2023/12/28 04:54:56;;;;;;;9.35;3.30;;;9.90;99.90;;;;;;5047989;28;20499;-79
2023/12/28 04:57:24;;;;;;;9.38;3.17;;;9.90;99.90;;;;;;5050898;28;20075;-79
2023/12/28 04:59:50;;;;;;;8.57;3.28;;;9.90;99.90;;;;;;5044548;28;20067;-79
2023/12/28 05:02:16;;;;;;;10.90;3.30;;;9.90;99.90;;;;;;5044912;28;20041;-79
2023/12/28 05:04:42;;;;;;;14.95;3.60;;;9.90;99.90;;;;;;5039946;28;20060;-79
2023/12/28 05:07:07;;;;;;;9.40;2.92;;;9.90;99.90;;;;;;5044161;28;20053;-78
2023/12/28 05:09:33;;;;;;;11.00;3.60;;;9.90;99.90;;;;;;5043848;28;20045;-79
2023/12/28 05:11:59;;;;;;;11.63;3.63;;;9.90;99.90;;;;;;5045574;28;20044;-79
2023/12/28 05:14:24;;;;;;;12.90;3.17;;;9.80;99.90;;;;;;5043368;28;20056;-79
2023/12/28 05:16:50;;;;;;;10.55;3.03;;;9.90;99.90;;;;;;5045729;28;20441;-79
2023/12/28 05:19:16;;;;;;;11.63;3.40;;;9.80;99.90;;;;;;5044915;28;20056;-78
2023/12/28 05:21:42;;;;;;;12.13;3.17;;;9.90;99.90;;;;;;5047119;28;20051;-79
2023/12/28 05:24:07;;;;;;;9.93;3.33;;;9.80;99.90;;;;;;5046121;28;20041;-79
2023/12/28 05:26:33;;;;;;;9.10;3.20;;;9.90;99.90;;;;;;5042547;28;20064;-78
2023/12/28 05:28:59;;;;;;;10.45;3.38;;;9.90;99.90;;;;;;5047969;28;20055;-79
2023/12/28 05:31:25;;;;;;;9.38;3.20;;;9.90;99.90;;;;;;5041585;28;20041;-79
2023/12/28 05:33:50;;;;;;;10.10;3.20;;;9.90;99.90;;;;;;5048156;28;20074;-79
2023/12/28 05:36:16;;;;;;;7.60;2.80;;;9.90;99.90;;;;;;5046133;28;20036;-79
2023/12/28 05:38:42;;;;;;;9.60;2.95;;;10.00;99.90;;;;;;5042356;28;20139;-79
2023/12/28 05:41:10;;;;;;;10.45;3.08;;;9.90;99.90;;;;;;5044062;28;20462;-79
2023/12/28 05:43:36;;;;;;;10.30;3.25;;;10.00;99.90;;;;;;5046873;28;20488;-79
2023/12/28 05:46:02;;;;;;;7.72;2.80;;;10.00;99.90;;;;;;5043169;28;20044;-79
2023/12/28 05:48:27;;;;;;;11.38;3.20;;;10.00;99.90;;;;;;5042126;28;20071;-79
2023/12/28 05:50:53;;;;;;;11.55;3.25;;;10.00;99.90;;;;;;5049483;28;20044;-79
2023/12/28 05:53:18;;;;;;;11.30;3.35;;;10.00;99.90;;;;;;5045107;28;20033;-79
2023/12/28 05:55:44;;;;;;;10.32;3.42;;;10.10;99.90;;;;;;5048345;28;20538;-79
2023/12/28 05:58:10;;;;;;;12.82;3.50;;;10.10;99.90;;;;;;5040800;28;20037;-79
2023/12/28 06:00:39;;;;;;;10.98;3.20;;;10.00;99.90;;;;;;5045390;28;20044;-79
2023/12/28 06:03:05;;;;;;;15.30;3.35;;;10.10;99.90;;;;;;5044019;28;20408;-79
2023/12/28 06:05:31;;;;;;;11.25;2.80;;;10.10;99.90;;;;;;5043582;28;20049;-79
2023/12/28 06:07:57;;;;;;;11.20;3.38;;;10.20;99.90;;;;;;5044057;28;20060;-79
2023/12/28 06:10:24;;;;;;;10.88;3.20;;;10.20;99.90;;;;;;5045819;28;20060;-79
2023/12/28 06:12:50;;;;;;;13.65;3.10;;;10.20;99.90;;;;;;5046159;28;20400;-79
2023/12/28 06:15:16;;;;;;;16.20;3.53;;;10.20;99.90;;;;;;5044267;28;20044;-79
2023/12/28 06:17:41;;;;;;;11.85;3.40;;;10.20;99.90;;;;;;5046209;28;20043;-79
2023/12/28 06:20:08;;;;;;;13.57;3.30;;;10.20;99.90;;;;;;5043971;28;20164;-79
2023/12/28 06:22:36;;;;;;;14.23;3.40;;;10.20;99.90;;;;;;5040469;28;20138;-78
2023/12/28 06:25:03;;;;;;;12.10;3.50;;;10.20;99.90;;;;;;5046254;28;20151;-79
2023/12/28 06:27:29;;;;;;;14.32;3.53;;;10.20;99.90;;;;;;5044601;28;20465;-79
2023/12/28 06:29:54;;;;;;;13.85;3.42;;;10.30;99.90;;;;;;5033699;28;20072;-78
2023/12/28 06:32:20;;;;;;;12.77;3.35;;;10.30;99.90;;;;;;5045033;28;20132;-79
2023/12/28 06:34:46;;;;;;;13.00;3.40;;;10.30;99.90;;;;;;5045357;28;20045;-79
2023/12/28 06:37:12;;;;;;;12.38;3.65;;;10.30;99.90;;;;;;5045780;28;20041;-82
2023/12/28 06:39:38;;;;;;;12.02;3.40;;;10.30;99.90;;;;;;5036599;28;20045;-80
2023/12/28 06:42:04;;;;;;;17.67;4.15;;;10.30;99.90;;;;;;5044632;28;20045;-81
2023/12/28 06:44:30;;;;;;;7.57;1.95;;;10.30;99.90;;;;;;5044796;28;20651;-80
2023/12/28 06:46:56;;;;;;;10.05;1.98;;;10.30;99.90;;;;;;5036884;28;20058;-80
2023/12/28 06:49:21;;;;;;;14.13;4.03;;;10.20;99.90;;;;;;5041039;28;20104;-80
2023/12/28 06:51:47;;;;;;;15.90;3.42;;;10.30;99.90;;;;;;5041413;28;20041;-80
2023/12/28 06:54:14;;;;;;;14.63;3.90;;;10.30;99.90;;;;;;5038487;28;20099;-79
2023/12/28 06:56:40;;;;;;;;;;;10.40;99.90;;;;;;5042865;28;20075;-79
2023/12/28 06:59:06;;;;;;;15.80;3.15;;;10.30;99.90;;;;;;5040123;28;20604;-75
2023/12/28 07:01:32;;;;;;;9.32;1.90;;;10.30;99.90;;;;;;5037306;28;20132;-75
2023/12/28 07:03:59;;;;;;;13.02;3.50;;;10.40;99.90;;;;;;5039825;28;20405;-75
2023/12/28 07:06:25;;;;;;;10.07;1.77;;;10.40;99.90;;;;;;5037115;28;20053;-75
2023/12/28 07:08:50;;;;;;;11.10;3.17;;;10.40;99.90;;;;;;5039303;28;20139;-74
2023/12/28 07:11:16;;;;;;;12.23;3.17;;;10.40;99.90;;;;;;5033344;28;20523;-75
2023/12/28 07:13:42;;;;;;;14.00;3.83;;;10.40;99.90;;;;;;5048977;28;20048;-75
2023/12/28 07:16:07;;;;;;;18.27;3.67;;;10.40;99.90;;;;;;5044127;28;20045;-75
2023/12/28 07:18:33;;;;;;;15.55;3.60;;;10.40;99.90;;;;;;5045621;28;20080;-75
2023/12/28 07:21:00;;;;;;;15.07;3.60;;;10.40;99.90;;;;;;5044227;28;20060;-75
2023/12/28 07:23:25;;;;;;;12.80;3.80;;;10.40;99.90;;;;;;5035903;28;20084;-75
2023/12/28 07:25:51;;;;;;;13.45;3.38;;;10.50;99.90;;;;;;5039094;28;20485;-75
2023/12/28 07:28:17;;;;;;;11.90;3.58;;;10.50;99.90;;;;;;5036182;28;20375;-75
2023/12/28 07:30:43;;;;;;;11.70;1.95;;;10.50;99.90;;;;;;5045867;28;20056;-75
2023/12/28 07:33:09;;;;;;;14.07;3.70;;;10.50;99.90;;;;;;5044584;28;20049;-75
2023/12/28 07:35:34;;;;;;;13.73;3.58;;;10.50;99.90;;;;;;5039579;28;20053;-75
2023/12/28 07:38:00;;;;;;;18.48;4.07;;;10.50;99.90;;;;;;5037371;28;20045;-75
2023/12/28 07:40:26;;;;;;;16.30;3.78;;;10.50;99.90;;;;;;5044206;28;20492;-75
2023/12/28 07:42:52;;;;;;;14.82;3.70;;;10.60;99.90;;;;;;5044911;28;20040;-75
2023/12/28 07:45:22;;;;;;;13.65;3.70;;;10.60;99.90;;;;;;5042888;28;20057;-75
2023/12/28 07:47:49;;;;;;;16.65;3.72;;;10.60;99.90;;;;;;5036014;28;20057;-75
2023/12/28 07:50:15;;;;;;;12.55;3.38;;;10.60;99.90;;;;;;5043067;28;20131;-75
2023/12/28 07:52:42;;;;;;;15.70;4.00;;;10.60;99.90;;;;;;5042222;28;20128;-75
2023/12/28 07:55:08;;;;;;;15.35;4.05;;;10.60;99.90;;;;;;5045086;28;20484;-75
2023/12/28 07:57:35;;;;;;;16.13;4.10;;;10.70;99.90;;;;;;5036219;28;20045;-75
2023/12/28 08:00:01;;;;;;;16.13;4.30;;;10.70;99.90;;;;;;5035346;28;20076;-75
2023/12/28 08:02:27;;;;;;;14.93;3.60;;;10.70;99.90;;;;;;5037260;28;20127;-75
2023/12/28 08:04:53;;;;;;;17.77;4.13;;;10.70;99.90;;;;;;5040161;28;20087;-75
2023/12/28 08:07:19;;;;;;;19.85;3.90;;;10.70;99.90;;;;;;5047523;28;20049;-76
2023/12/28 08:09:44;;;;;;;14.68;3.63;;;10.70;99.90;;;;;;5045438;28;20480;-77
2023/12/28 08:12:10;;;;;;;16.42;4.13;;;10.70;99.90;;;;;;5043505;28;20520;-76
2023/12/28 08:14:36;;;;;;;15.95;4.00;;;10.70;99.90;;;;;;5046016;28;20517;-76
2023/12/28 08:17:01;;;;;;;17.45;4.18;;;10.70;99.90;;;;;;5047328;28;20049;-76
2023/12/28 08:19:27;;;;;;;15.95;3.80;;;10.70;99.90;;;;;;5034622;28;20041;-76
2023/12/28 08:21:53;;;;;;;19.90;4.60;;;10.80;99.90;;;;;;5037550;28;20393;-77
2023/12/28 08:24:18;;;;;;;20.17;4.10;;;10.70;99.90;;;;;;5047170;28;20480;-77
2023/12/28 08:26:44;;;;;;;16.85;3.80;;;10.80;99.90;;;;;;5050296;28;20041;-80
2023/12/28 08:29:10;;;;;;;15.93;3.67;;;10.80;99.90;;;;;;5056982;28;20498;-77
2023/12/28 08:31:35;;;;;;;16.30;4.32;;;10.80;99.90;;;;;;5038435;28;20045;-81
2023/12/28 08:34:01;;;;;;;19.65;4.13;;;10.80;99.90;;;;;;5050069;28;20049;-82
2023/12/28 08:36:26;;;;;;;17.92;4.15;;;10.80;99.90;;;;;;5053568;28;20075;-82
2023/12/28 08:38:52;;;;;;;22.77;4.28;;;10.80;99.90;;;;;;5038963;28;20052;-76
2023/12/28 08:41:23;;;;;;;19.70;4.63;;;10.90;99.90;;;;;;5048118;28;20396;-84
2023/12/28 08:43:50;;;;;;;16.40;3.92;;;10.80;99.90;;;;;;5048554;28;20045;-81
2023/12/28 08:46:16;;;;;;;15.55;3.95;;;10.90;99.90;;;;;;5049788;28;20044;-78
2023/12/28 08:48:42;;;;;;;19.48;4.88;;;10.90;99.90;;;;;;5042861;28;20087;-77
2023/12/28 08:51:09;;;;;;;18.92;4.50;;;10.90;99.90;;;;;;5047862;28;20033;-76
2023/12/28 08:53:35;;;;;;;;;;;10.90;99.90;;;;;;5048480;28;20473;-77
2023/12/28 08:56:00;;;;;;;20.58;4.93;;;10.90;99.90;;;;;;5044702;28;19921;-76
2023/12/28 08:58:26;;;;;;;21.05;4.70;;;10.90;99.90;;;;;;5049806;28;20106;-77
2023/12/28 09:00:52;;;;;;;19.70;4.50;;;10.90;99.90;;;;;;5047058;28;20128;-81
2023/12/28 09:03:17;;;;;;;17.55;4.10;;;11.00;99.90;;;;;;5050399;28;20051;-78
2023/12/28 09:05:43;;;;;;;17.52;4.25;;;11.00;99.90;;;;;;5045388;28;20063;-78
2023/12/28 09:08:09;;;;;;;19.73;4.03;;;11.00;99.90;;;;;;5048609;28;20045;-77
2023/12/28 09:10:34;;;;;;;20.92;4.63;;;11.00;99.90;;;;;;5048500;28;20049;-78
2023/12/28 09:13:00;;;;;;;21.80;4.60;;;11.00;99.90;;;;;;5054716;28;20044;-76
2023/12/28 09:15:25;;;;;;;21.42;4.93;;;11.00;99.90;;;;;;5051684;28;20094;-75
2023/12/28 09:17:51;;;;;;;19.15;4.80;;;11.00;99.90;;;;;;5047472;28;20575;-77
2023/12/28 09:20:18;;;;;;;18.63;4.40;;;11.00;99.90;;;;;;5050940;28;20041;-77
2023/12/28 09:22:45;;;;;;;23.08;5.07;;;11.00;99.90;;;;;;5034490;28;20050;-74
2023/12/28 09:25:11;;;;;;;16.92;4.57;;;11.00;99.90;;;;;;5043901;28;20052;-77
2023/12/28 09:27:37;;;;;;;23.65;5.30;;;11.00;99.90;;;;;;5046276;28;20041;-76
2023/12/28 09:30:03;;;;;;;20.95;4.75;;;11.00;99.90;;;;;;5049421;28;20045;-76
2023/12/28 09:32:28;;;;;;;19.35;4.68;;;11.00;99.90;;;;;;5047219;28;20078;-76
2023/12/28 09:34:54;;;;;;;17.80;4.40;;;11.10;99.90;;;;;;5048001;28;20049;-78
2023/12/28 09:37:20;;;;;;;17.02;4.10;;;11.10;99.90;;;;;;5036911;28;20044;-77
2023/12/28 09:39:46;;;;;;;19.27;4.72;;;11.10;99.90;;;;;;5042339;28;20041;-74
2023/12/28 09:42:29;;;;;;;16.52;3.92;;;11.10;99.90;;;;;;5042551;28;20049;-78
2023/12/28 09:44:55;;;;;;;19.67;4.50;;;11.10;99.90;;;;;;5044918;28;20045;-76
2023/12/28 09:47:21;;;;;;;17.65;4.25;;;11.10;99.90;;;;;;5048790;28;20047;-77
2023/12/28 09:49:47;;;;;;;17.88;4.10;;;11.10;99.90;;;;;;5047778;28;20045;-76
2023/12/28 09:52:13;;;;;;;22.20;4.72;;;11.10;99.90;;;;;;5050167;28;20041;-76
2023/12/28 09:54:38;;;;;;;19.83;4.63;;;11.10;99.90;;;;;;5047435;28;20564;-77
2023/12/28 09:57:05;;;;;;;17.77;4.10;;;11.20;99.90;;;;;;5040694;28;20122;-74
2023/12/28 09:59:32;;;;;;;19.42;4.13;;;11.10;99.90;;;;;;5032291;28;20045;-77
2023/12/28 10:02:01;;;;;;;19.35;4.38;;;11.20;99.90;;;;;;5047167;28;20563;-78
2023/12/28 10:04:29;;;;;;;22.80;4.72;;;11.20;99.90;;;;;;5050661;28;20172;-78
2023/12/28 10:06:54;;;;;;;17.08;4.50;;;11.20;99.90;;;;;;5048241;28;20404;-77
2023/12/28 10:09:21;;;;;;;21.70;5.15;;;11.20;99.90;;;;;;5045018;28;20026;-77
2023/12/28 10:11:47;;;;;;;23.87;4.90;;;11.20;99.90;;;;;;5043305;28;20049;-78
2023/12/28 10:14:13;;;;;;;18.77;4.28;;;11.20;99.90;;;;;;5041576;28;20044;-77
2023/12/28 10:16:42;;;;;;;20.75;4.53;;;11.20;99.90;;;;;;5047391;28;20045;-77
2023/12/28 10:19:08;;;;;;;22.55;5.55;;;11.20;99.90;;;;;;5044811;28;20421;-77
2023/12/28 10:21:34;;;;;;;19.40;4.85;;;11.10;99.90;;;;;;5041225;28;20170;-76
2023/12/28 10:24:00;;;;;;;23.52;4.65;;;11.10;99.90;;;;;;5043215;28;20385;-76
2023/12/28 10:26:27;;;;;;;19.27;4.53;;;11.10;99.90;;;;;;5045391;28;20087;-75
2023/12/28 10:29:03;;;;;;;17.40;4.47;;;11.10;99.90;;;;;;5046611;28;20050;-75
2023/12/28 10:31:29;;;;;;;19.50;4.28;;;11.10;99.90;;;;;;5049214;28;20045;-76
2023/12/28 10:33:59;;;;;;;19.02;4.10;;;11.10;99.90;;;;;;5051827;28;20439;-76
2023/12/28 10:36:27;;;;;;;22.90;4.85;;;11.10;99.90;;;;;;5040823;28;20424;-79
2023/12/28 10:38:54;;;;;;;16.45;4.30;;;11.10;99.90;;;;;;5055128;28;20536;-78
2023/12/28 10:41:21;;;;;;;20.88;4.90;;;11.10;99.90;;;;;;5046432;28;20072;-76
2023/12/28 10:43:59;;;;;;;21.10;3.90;;;11.10;99.90;;;;;;5039970;28;20056;-76
2023/12/28 10:46:29;;;;;;;18.85;4.65;;;11.10;99.90;;;;;;5046541;28;20059;-76
2023/12/28 10:49:04;;;;;;;14.88;3.92;;;11.10;99.90;;;;;;5043150;28;20424;-76
2023/12/28 10:51:31;;;;;;;21.17;4.47;;;11.10;99.90;;;;;;5040531;28;20094;-76
2023/12/28 10:54:13;;;;;;;18.65;4.65;;;11.10;99.90;;;;;;5046502;28;20047;-83
2023/12/28 10:56:45;;;;;;;19.67;4.15;;;11.10;99.90;;;;;;5049840;28;20166;-76
2023/12/28 10:59:24;;;;;;;18.73;4.30;;;11.10;99.90;;;;;;5049614;28;20048;-78
2023/12/28 11:01:54;;;;;;;17.27;4.65;;;11.10;99.90;;;;;;5049910;28;20106;-78
2023/12/28 11:04:38;;;;;;;15.38;4.07;;;11.10;99.90;;;;;;5048891;28;20437;-77
2023/12/28 11:07:06;;;;;;;18.17;3.97;;;11.10;99.90;;;;;;5048925;28;20633;-78
2023/12/28 11:09:33;;;;;;;16.73;3.90;;;11.10;99.90;;;;;;5050098;28;20049;-76
2023/12/28 11:12:00;;;;;;;17.80;4.07;;;11.10;99.90;;;;;;5049695;28;20049;-77
2023/12/28 11:14:30;;;;;;;18.80;4.30;;;11.10;99.90;;;;;;5035349;28;20039;-77
2023/12/28 11:16:59;;;;;;;20.42;4.72;;;11.10;99.90;;;;;;5071653;28;20056;-77
2023/12/28 11:19:26;;;;;;;18.70;4.65;;;11.20;99.90;;;;;;5048685;28;20496;-77
2023/12/28 11:21:53;;;;;;;21.88;4.70;;;11.10;99.90;;;;;;5050005;28;20136;-75
2023/12/28 11:24:19;;;;;;;19.93;4.20;;;11.10;99.90;;;;;;5048944;28;20041;-78
2023/12/28 11:26:53;;;;;;;19.45;4.35;;;11.10;99.90;;;;;;5047719;28;20443;-77
2023/12/28 11:29:19;;;;;;;19.48;4.85;;;11.10;99.90;;;;;;5043065;28;20141;-77
2023/12/28 11:31:54;;;;;;;19.70;4.30;;;11.20;99.90;;;;;;5042728;28;20543;-77
2023/12/28 11:34:28;;;;;;;19.55;4.45;;;11.10;99.90;;;;;;5046227;28;20086;-74
2023/12/28 11:37:12;;;;;;;21.92;4.78;;;11.10;99.90;;;;;;5048265;28;20073;-74
2023/12/28 11:39:39;;;;;;;18.38;4.68;;;11.10;99.90;;;;;;5047492;28;20033;-77
2023/12/28 11:42:08;;;;;;;21.00;4.50;;;11.10;99.90;;;;;;5034594;28;20522;-75
2023/12/28 11:44:43;;;;;;;20.83;4.60;;;11.10;99.90;;;;;;5045163;28;20060;-77
2023/12/28 11:47:13;;;;;;;20.67;4.40;;;11.20;99.90;;;;;;5049208;28;20045;-77
2023/12/28 11:49:41;;;;;;;18.77;4.30;;;11.20;99.90;;;;;;5052966;28;20523;-75
2023/12/28 11:52:08;;;;;;;19.48;4.25;;;11.20;99.90;;;;;;5050614;28;20065;-75
2023/12/28 11:54:34;;;;;;;17.98;4.45;;;11.20;99.90;;;;;;5048444;28;20033;-75
2023/12/28 11:57:00;;;;;;;18.02;4.35;;;11.20;99.90;;;;;;5044055;28;20060;-75
2023/12/28 11:59:26;;;;;;;19.80;4.43;;;11.20;99.90;;;;;;5047786;28;20037;-75
2023/12/28 12:01:52;;;;;;;18.88;4.30;;;11.20;99.90;;;;;;5048888;28;20056;-75
2023/12/28 12:04:20;;;;;;;17.27;4.27;;;11.10;99.90;;;;;;5049110;28;20071;-75
2023/12/28 12:06:47;;;;;;;16.25;4.07;;;11.10;99.90;;;;;;5051630;28;20210;-75
2023/12/28 12:09:14;;;;;;;18.93;5.00;;;11.10;99.90;;;;;;5052558;28;20431;-75
2023/12/28 12:11:40;;;;;;;17.60;4.00;;;11.10;99.90;;;;;;5060199;28;20424;-78
2023/12/28 12:14:11;;;;;;;21.38;4.80;;;11.10;99.90;;;;;;5036804;28;20048;-77
2023/12/28 12:16:38;;;;;;;20.33;4.47;;;11.00;99.90;;;;;;5048809;28;20508;-88
2023/12/28 12:19:04;;;;;;;20.85;4.63;;;11.00;99.90;;;;;;5042693;28;20048;-79
2023/12/28 12:21:30;;;;;;;18.45;4.10;;;11.00;99.90;;;;;;5043933;28;20041;-77
2023/12/28 12:23:56;;;;;;;17.85;4.40;;;11.00;99.90;;;;;;5043945;28;20582;-77
2023/12/28 12:26:21;;;;;;;20.63;4.40;;;11.00;99.90;;;;;;5048224;28;20080;-76
2023/12/28 12:28:48;;;;;;;17.15;4.40;;;11.00;99.90;;;;;;5047112;28;20071;-78
2023/12/28 12:31:14;;;;;;;17.27;4.38;;;11.00;99.90;;;;;;5034782;28;20049;-78
2023/12/28 12:33:40;;;;;;;20.77;5.18;;;11.00;99.90;;;;;;5034524;28;20049;-78
2023/12/28 12:36:08;;;;;;;20.33;4.55;;;11.00;99.90;;;;;;5044265;28;20087;-78
2023/12/28 12:38:34;;;;;;;19.00;4.43;;;11.00;99.90;;;;;;5037394;28;20094;-78
2023/12/28 12:40:59;;;;;;;20.33;4.43;;;11.00;99.90;;;;;;5043020;28;20038;-78
2023/12/28 12:43:26;;;;;;;17.95;4.30;;;11.00;99.90;;;;;;5042526;28;20072;-77